Time;durP1;ratioP1;P1;durP2;ratioP2;P2;SDS_P1;SDS_P2;PMS_P1;PMS_P2;Temp;Humidity;BMP_temperature;BMP_pressure;BME280_temperature;BME280_humidity;BME280_pressure;Samples;Min_cycle;Max_cycle;Signal;HPM_P1;HPM_P2
2022/10/21 00:01:20;;;;;;;;;1.25;1.00;;;;;17.62;71.26;100398.44;5105238;27;45324;-90
2022/10/21 00:03:48;;;;;;;;;2.50;1.00;;;;;17.60;70.94;100397.69;5104897;27;45507;-90
2022/10/21 00:06:13;;;;;;;;;1.75;1.25;;;;;17.61;71.13;100405.50;5105150;27;47437;-90
2022/10/21 00:08:39;;;;;;;;;4.00;1.00;;;;;17.61;71.31;100410.75;5105195;27;45591;-90
2022/10/21 00:11:06;;;;;;;;;2.00;1.25;;;;;17.64;71.35;100411.50;5105355;27;45515;-90
2022/10/21 00:13:38;;;;;;;;;2.00;1.00;;;;;17.62;71.18;100403.69;5104921;27;45380;-90
2022/10/21 00:16:12;;;;;;;;;4.25;1.25;;;;;17.62;71.45;100403.69;5122507;27;45646;-90
2022/10/21 00:18:39;;;;;;;;;2.00;1.75;;;;;17.66;71.20;100394.66;5138211;27;45613;-89
2022/10/21 00:21:07;;;;;;;;;2.00;1.00;;;;;17.65;71.03;100397.41;5105111;27;45398;-89
2022/10/21 00:23:32;;;;;;;;;2.00;2.00;;;;;17.64;71.26;100390.44;5103979;27;45371;-90
2022/10/21 00:26:01;;;;;;;;;1.00;1.00;;;;;17.66;71.15;100386.75;5104608;27;47316;-89
2022/10/21 00:28:27;;;;;;;;;4.00;1.00;;;;;17.66;71.30;100381.50;5104760;27;45709;-90
2022/10/21 00:30:52;;;;;;;;;1.75;1.00;;;;;17.65;70.92;100385.09;5104872;27;45323;-91
2022/10/21 00:33:21;;;;;;;;;2.00;1.75;;;;;17.63;71.35;100384.34;5122014;27;45284;-90
2022/10/21 00:35:54;;;;;;;;;0.75;0.75;;;;;17.59;71.18;100377.59;5105084;27;48286;-90
2022/10/21 00:38:23;;;;;;;;;4.00;1.00;;;;;17.57;71.51;100374.22;5104752;27;45366;-89
2022/10/21 00:40:49;;;;;;;;;2.00;2.00;;;;;17.56;71.19;100377.78;5122418;27;45369;-90
2022/10/21 00:43:15;;;;;;;;;2.25;2.00;;;;;17.55;71.27;100369.06;5121794;27;45648;-90
2022/10/21 00:45:41;;;;;;;;;1.50;1.00;;;;;17.54;71.38;100377.88;5104315;27;47415;-90
2022/10/21 00:48:27;;;;;;;;;1.50;1.50;;;;;17.54;71.34;100370.00;5117196;27;45635;-90
2022/10/21 00:50:55;;;;;;;;;1.00;1.00;;;;;17.53;71.42;100365.69;5140281;27;45331;-90
2022/10/21 00:53:21;;;;;;;;;3.25;1.00;;;;;17.54;71.50;100367.34;5121580;27;45348;-89
2022/10/21 00:55:57;;;;;;;;;2.75;2.00;;;;;17.52;71.65;100361.34;5104248;27;48276;-91
2022/10/21 00:58:25;;;;;;;;;1.00;1.00;;;;;17.51;71.97;100357.00;5104696;27;45434;-89
2022/10/21 01:00:54;;;;;;;;;1.75;1.00;;;;;17.49;71.60;100358.91;5121012;27;45437;-90
2022/10/21 01:03:20;;;;;;;;;1.00;1.00;;;;;17.47;71.76;100347.63;5121842;27;45331;-91
2022/10/21 01:05:46;;;;;;;;;3.00;1.00;;;;;17.47;71.53;100344.16;5103741;27;47890;-89
2022/10/21 01:08:11;;;;;;;;;2.50;1.00;;;;;17.47;71.85;100338.91;5104016;27;45636;-90
2022/10/21 01:10:40;;;;;;;;;2.00;2.00;;;;;17.47;71.56;100325.75;5104236;27;45376;-90
2022/10/21 01:13:22;;;;;;;;;3.25;2.00;;;;;17.46;71.51;100322.28;5121372;27;45310;-90
2022/10/21 01:16:02;;;;;;;;;2.00;1.00;;;;;17.42;71.97;100321.63;5103312;27;47474;-90
2022/10/21 01:18:58;;;;;;;;;3.00;1.00;;;;;17.45;72.10;100314.47;5089571;27;45210;-90
2022/10/21 01:21:53;;;;;;;;;2.00;1.50;;;;;17.40;72.10;100310.38;5118722;27;45231;-90
2022/10/21 01:25:15;;;;;;;;;1.00;0.50;;;;;17.35;72.45;100307.19;5058561;28;45557;-89
2022/10/21 01:28:02;;;;;;;;;2.75;2.00;;;;;17.31;72.87;100315.34;5034388;28;45426;-90
2022/10/21 01:30:37;;;;;;;;;5.50;1.75;;;;;17.29;73.05;100299.69;5034966;28;45619;-89
2022/10/21 01:33:13;;;;;;;;;1.75;1.00;;;;;17.31;72.72;100304.81;5018719;28;45520;-89
2022/10/21 01:35:44;;;;;;;;;2.75;1.00;;;;;17.35;72.64;100301.09;5043398;28;45559;-90
2022/10/21 01:38:25;;;;;;;;;3.25;2.00;;;;;17.39;72.98;100306.03;5037881;28;47295;-90
2022/10/21 01:41:23;;;;;;;;;3.50;1.25;;;;;17.46;72.86;100310.88;5038060;28;45494;-90
2022/10/21 01:43:51;;;;;;;;;2.50;2.00;;;;;17.51;72.57;100317.53;5038359;28;45463;-90
2022/10/21 01:46:38;;;;;;;;;3.75;2.00;;;;;17.55;72.32;100328.72;5037989;28;45488;-90
2022/10/21 01:49:12;;;;;;;;;4.25;2.00;;;;;17.59;72.38;100331.06;5037850;28;47198;-90
2022/10/21 01:51:39;;;;;;;;;2.50;1.00;;;;;17.58;72.31;100325.91;5038123;28;45410;-90
2022/10/21 01:54:18;;;;;;;;;2.25;2.00;;;;;17.61;72.92;100329.19;5021566;28;45453;-90
2022/10/21 01:56:45;;;;;;;;;2.00;1.25;;;;;17.57;72.65;100330.31;5037949;28;45476;-89
2022/10/21 01:59:15;;;;;;;;;2.00;1.50;;;;;17.55;72.97;100344.50;5051237;28;45500;-90
2022/10/21 02:01:43;;;;;;;;;2.25;2.00;;;;;17.55;73.15;100382.22;5083440;27;45400;-90
2022/10/21 02:04:09;;;;;;;;;3.25;2.50;;;;;17.47;73.57;100410.78;5082890;27;45461;-89
2022/10/21 02:06:38;;;;;;;;;4.25;3.00;;;;;17.36;74.78;100411.44;5082821;27;45322;-90
2022/10/21 02:09:04;;;;;;;;;2.00;2.00;;;;;17.31;74.59;100421.44;5082327;27;48564;-89
2022/10/21 02:11:32;;;;;;;;;2.50;1.50;;;;;17.24;75.62;100422.75;5082544;27;54355;-89
2022/10/21 02:14:34;;;;;;;;;4.00;3.00;;;;;17.12;77.01;100416.44;5082731;27;45489;-92
2022/10/21 02:17:02;;;;;;;;;3.25;2.00;;;;;17.06;78.88;100408.09;5100371;27;45346;-87
2022/10/21 02:19:28;;;;;;;;;4.00;1.25;;;;;16.96;79.53;100416.56;5081972;27;48254;-85
2022/10/21 02:21:55;;;;;;;;;5.25;4.00;;;;;16.88;79.80;100389.03;5098190;27;60719;-87
2022/10/21 02:24:32;;;;;;;;;3.00;3.00;;;;;16.81;79.89;100370.16;5081300;27;45354;-86
2022/10/21 02:26:58;;;;;;;;;4.00;3.00;;;;;16.72;81.09;100357.56;5098821;27;45356;-86
2022/10/21 02:29:27;;;;;;;;;3.00;3.00;;;;;16.68;81.34;100367.41;5115777;27;65374;-86
2022/10/21 02:31:59;;;;;;;;;6.00;3.25;;;;;16.66;81.05;100337.75;5098749;27;45478;-86
2022/10/21 02:34:49;;;;;;;;;6.00;3.00;;;;;16.66;81.24;100316.72;5128092;27;45512;-87
2022/10/21 02:37:45;;;;;;;;;3.00;3.00;;;;;16.69;81.07;100290.25;5138278;27;45370;-86
2022/10/21 02:40:21;;;;;;;;;2.50;2.50;;;;;16.73;81.86;100278.59;5103919;27;47224;-87
2022/10/21 02:42:51;;;;;;;;;6.00;3.75;;;;;16.75;81.55;100279.38;5122270;27;45840;-87
2022/10/21 02:45:17;;;;;;;;;2.75;2.00;;;;;16.78;82.29;100278.31;5123126;27;45398;-87
2022/10/21 02:47:43;;;;;;;;;4.75;3.00;;;;;16.85;81.66;100260.44;5105629;27;45508;-87
2022/10/21 02:50:09;;;;;;;;;3.50;3.50;;;;;16.93;81.96;100253.72;5123202;27;46152;-88
2022/10/21 02:52:34;;;;;;;;;3.25;3.00;;;;;17.01;81.98;100246.22;5105962;27;45709;-88
2022/10/21 02:55:00;;;;;;;;;2.00;2.00;;;;;17.08;81.80;100245.81;5141625;27;50939;-88
2022/10/21 02:57:25;;;;;;;;;6.00;4.00;;;;;17.11;81.73;100251.72;5122453;27;60334;-88
2022/10/21 02:59:50;;;;;;;;;5.75;3.00;;;;;17.10;81.64;100247.41;5106149;27;48406;-89
2022/10/21 03:02:16;;;;;;;;;5.50;3.00;;;;;17.10;81.30;100242.13;5141628;27;45256;-89
2022/10/21 03:04:41;;;;;;;;;3.50;2.50;;;;;17.08;81.21;100244.03;5123290;27;45619;-89
2022/10/21 03:07:14;;;;;;;;;7.00;5.00;;;;;17.03;81.30;100241.72;5106367;27;45397;-89
2022/10/21 03:09:40;;;;;;;;;4.50;2.25;;;;;16.97;81.72;100255.22;5125021;27;45618;-90
2022/10/21 03:12:18;;;;;;;;;3.25;2.00;;;;;16.92;81.55;100261.72;5123713;27;45725;-90
2022/10/21 03:14:46;;;;;;;;;4.00;3.50;;;;;16.89;81.66;100275.91;5107974;27;45342;-90
2022/10/21 03:20:35;;;;;;;;;4.25;4.00;;;;;16.81;81.91;100293.91;5127040;27;46864;-91
2022/10/21 03:23:29;;;;;;;;;5.00;4.00;;;;;16.77;82.33;100292.41;5082736;27;45693;-92
2022/10/21 03:25:58;;;;;;;;;3.25;3.25;;;;;16.79;82.68;100293.13;5099821;27;45414;-91
2022/10/21 03:31:28;;;;;;;;;3.75;3.75;;;;;16.77;82.53;100303.78;5106571;27;46462;-91
2022/10/21 03:34:12;;;;;;;;;3.50;3.00;;;;;16.77;82.73;100301.16;5103055;27;45489;-93
2022/10/21 03:36:55;;;;;;;;;11.00;3.75;;;;;16.78;82.84;100296.72;5102549;27;45339;-91
2022/10/21 03:39:42;;;;;;;;;2.75;2.00;;;;;16.78;82.90;100297.56;5103372;27;45379;-93
2022/10/21 03:42:25;;;;;;;;;3.75;3.00;;;;;16.82;82.98;100295.59;5102600;27;45931;-92
2022/10/21 03:44:53;;;;;;;;;4.50;3.25;;;;;16.83;82.99;100295.53;5102545;27;45470;-92
2022/10/21 03:47:29;;;;;;;;;4.25;3.00;;;;;16.82;82.91;100299.09;5102481;27;45332;-92
2022/10/21 03:50:29;;;;;;;;;6.25;4.00;;;;;16.83;82.90;100311.31;5082693;27;45394;-92
2022/10/21 03:53:34;;;;;;;;;2.00;2.00;;;;;16.83;82.96;100302.59;5103291;27;47345;-92
2022/10/21 03:56:19;;;;;;;;;4.50;3.00;;;;;16.85;83.15;100310.38;5119978;27;45264;-92
2022/10/21 03:58:55;;;;;;;;;3.00;2.50;;;;;16.87;83.24;100327.72;5102095;27;45390;-92
2022/10/21 04:01:32;;;;;;;;;3.00;1.00;;;;;16.91;83.02;100329.22;5101950;27;45504;-92
2022/10/21 04:04:48;;;;;;;;;4.00;2.00;;;;;16.94;82.81;100325.59;5119879;27;45500;-92
2022/10/21 04:08:00;;;;;;;;;;;;;;;;;;;;;
2022/10/21 04:10:30;;;;;;;;;3.75;3.00;;;;;16.94;82.60;100326.41;5110856;27;70468;-92
2022/10/21 04:13:32;;;;;;;;;;;;;;;;;;;;;
2022/10/21 04:16:02;;;;;;;;;3.00;1.50;;;;;16.93;83.08;100321.25;5119221;27;75765;-92
2022/10/21 04:18:43;;;;;;;;;2.00;2.00;;;;;16.87;83.04;100314.59;5090320;27;45556;-92
2022/10/21 04:27:02;;;;;;;;;3.25;3.00;;;;;16.87;82.50;100308.50;5104775;27;46620;-92
2022/10/21 04:29:30;;;;;;;;;5.00;3.75;;;;;16.87;83.12;100314.59;5118471;27;45632;-91
2022/10/21 04:32:04;;;;;;;;;4.00;4.00;;;;;16.87;82.48;100317.22;5101834;27;45501;-91
2022/10/21 04:34:30;;;;;;;;;3.00;3.00;;;;;16.87;82.73;100326.91;5132213;27;45511;-89
2022/10/21 04:36:57;;;;;;;;;5.50;3.25;;;;;16.87;82.64;100333.00;5121730;27;45525;-90
2022/10/21 04:39:23;;;;;;;;;6.25;4.00;;;;;16.89;82.88;100328.47;5121514;27;45732;-91
2022/10/21 04:41:51;;;;;;;;;4.25;4.00;;;;;16.94;82.68;100328.22;5104945;27;45730;-92
2022/10/21 04:44:17;;;;;;;;;3.75;3.00;;;;;16.99;82.48;100329.63;5122377;27;45257;-90
2022/10/21 04:46:42;;;;;;;;;6.00;4.00;;;;;16.99;82.68;100324.34;5122019;27;45594;-91
2022/10/21 04:49:11;;;;;;;;;3.50;3.50;;;;;17.01;82.55;100330.34;5104637;27;45433;-91
2022/10/21 04:51:36;;;;;;;;;5.00;4.75;;;;;17.05;82.46;100338.03;5121688;27;45421;-90
2022/10/21 05:01:24;;;;;;;;;;;;;;;;;;;;;
2022/10/21 05:04:18;;;;;;;;;4.50;3.00;;;;;17.12;82.59;100332.28;4878049;29;69220;-92
2022/10/21 05:07:11;;;;;;;;;4.00;4.00;;;;;17.16;82.78;100333.81;4880372;29;45451;-92
2022/10/21 05:09:45;;;;;;;;;8.25;4.25;;;;;17.20;82.18;100330.03;4880732;29;45714;-93
2022/10/21 05:12:49;;;;;;;;;3.00;3.00;;;;;17.21;82.58;100336.97;4879662;29;62013;-93
2022/10/21 05:15:54;;;;;;;;;5.75;5.00;;;;;17.22;82.54;100340.47;4879816;29;45422;-92
2022/10/21 05:18:20;;;;;;;;;7.25;5.00;;;;;17.27;81.91;100345.44;4787364;29;46241;-91
2022/10/21 05:21:00;;;;;;;;;18.00;15.00;;;;;17.25;82.33;100339.41;4772413;29;46184;-91
2022/10/21 05:23:26;;;;;;;;;4.75;4.75;;;;;17.22;82.47;100351.00;4801452;29;45436;-91
2022/10/21 05:25:55;;;;;;;;;12.00;7.25;;;;;17.18;82.20;100352.13;4772821;29;45531;-91
2022/10/21 05:28:21;;;;;;;;;16.75;14.50;;;;;17.17;82.61;100353.06;4772672;29;45523;-91
2022/10/21 05:30:49;;;;;;;;;5.00;4.25;;;;;17.12;82.18;100363.00;4802882;29;45598;-91
2022/10/21 05:33:15;;;;;;;;;8.50;4.00;;;;;17.04;82.60;100358.22;4772030;29;45945;-91
2022/10/21 05:35:54;;;;;;;;;5.00;5.00;;;;;17.01;82.40;100354.03;4772685;29;45435;-91
2022/10/21 05:39:13;;;;;;;;;3.50;3.00;;;;;17.00;82.61;100354.13;4905743;28;45408;-91
2022/10/21 05:42:04;;;;;;;;;3.50;3.50;;;;;17.02;82.63;100362.75;4917601;28;46395;-91
2022/10/21 05:45:24;;;;;;;;;5.50;5.25;;;;;16.99;82.42;100344.53;4918333;28;45566;-92
2022/10/21 05:51:25;;;;;;;;;6.00;3.75;;;;;17.02;82.47;100353.06;4863517;29;45574;-90
2022/10/21 06:01:43;;;;;;;;;;;;;;;;;;;;;
2022/10/21 06:20:31;;;;;;;;;4.00;2.00;;;;;16.96;81.90;100434.13;5087819;27;45516;-77
2022/10/21 06:22:59;;;;;;;;;7.25;3.50;;;;;16.93;81.84;100447.44;5050668;28;54546;-78
2022/10/21 06:25:24;;;;;;;;;2.00;2.00;;;;;16.92;82.21;100446.59;5052265;28;45508;-78
2022/10/21 06:27:51;;;;;;;;;4.50;3.00;;;;;16.91;82.33;100436.16;5051084;28;45393;-79
2022/10/21 06:30:16;;;;;;;;;2.50;2.00;;;;;16.92;81.98;100425.56;5052027;28;45455;-78
2022/10/21 06:32:41;;;;;;;;;4.50;2.00;;;;;16.92;82.39;100441.34;5051257;28;68255;-79
2022/10/21 06:35:07;;;;;;;;;2.00;1.25;;;;;16.90;82.17;100435.34;5050862;28;65335;-79
2022/10/21 06:37:32;;;;;;;;;4.75;2.00;;;;;16.88;82.49;100437.19;5051948;28;45341;-80
2022/10/21 06:39:57;;;;;;;;;2.00;2.00;;;;;16.88;82.79;100431.94;5051832;28;49716;-80
2022/10/21 06:42:23;;;;;;;;;4.75;4.00;;;;;16.87;82.86;100432.88;5051167;28;65772;-79
2022/10/21 06:44:48;;;;;;;;;16.50;7.25;;;;;16.91;82.98;100421.22;5049908;28;62382;-79
2022/10/21 06:47:13;;;;;;;;;21.00;14.50;;;;;16.97;83.07;100398.97;5051067;28;69155;-79
2022/10/21 06:49:39;;;;;;;;;9.25;6.75;;;;;17.01;82.89;100403.97;5049069;28;75568;-79
2022/10/21 06:52:04;;;;;;;;;4.25;4.00;;;;;16.98;82.58;100443.59;5051772;28;45310;-80
2022/10/21 06:54:30;;;;;;;;;2.75;2.00;;;;;16.91;82.39;100457.19;5050982;28;68623;-80
2022/10/21 06:56:55;;;;;;;;;3.25;2.00;;;;;16.88;82.51;100473.16;5051788;28;45469;-80
2022/10/21 06:59:20;;;;;;;;;2.00;2.00;;;;;16.84;82.71;100472.47;5051012;28;65289;-80
2022/10/21 07:01:46;;;;;;;;;11.50;8.00;;;;;16.84;82.89;100464.59;5051313;28;57865;-80
2022/10/21 07:04:11;;;;;;;;;4.50;4.00;;;;;16.85;83.06;100454.94;5051347;28;45528;-80
2022/10/21 07:06:37;;;;;;;;;3.75;3.75;;;;;16.86;82.80;100461.88;5051719;28;45428;-79
2022/10/21 07:09:04;;;;;;;;;1.50;1.50;;;;;16.85;82.64;100474.19;5049287;28;71089;-80
2022/10/21 07:11:29;;;;;;;;;2.50;2.50;;;;;16.84;82.92;100464.59;5051537;28;45685;-80
2022/10/21 07:13:55;;;;;;;;;6.75;2.00;;;;;16.85;82.86;100465.47;5050738;28;63957;-80
2022/10/21 07:16:28;;;;;;;;;4.00;2.50;;;;;16.86;82.55;100464.50;5050104;28;45470;-80
2022/10/21 07:18:54;;;;;;;;;20.50;14.50;;;;;16.88;82.52;100446.88;5050535;28;45533;-80
2022/10/21 07:21:22;;;;;;;;;15.25;11.50;;;;;16.91;82.98;100457.19;5020479;28;45856;-80
2022/10/21 07:23:50;;;;;;;;;5.00;4.00;;;;;16.90;82.51;100481.78;5038034;28;45338;-80
2022/10/21 07:26:16;;;;;;;;;12.00;7.25;;;;;16.87;82.94;100503.03;5036679;28;45240;-80
2022/10/21 07:28:45;;;;;;;;;4.50;2.00;;;;;16.85;82.55;100512.78;5037664;28;46378;-80
2022/10/21 07:31:10;;;;;;;;;9.50;6.50;;;;;16.87;82.77;100508.28;5038021;28;45404;-80
2022/10/21 07:33:36;;;;;;;;;4.50;2.00;;;;;16.90;83.19;100508.94;5036266;28;66052;-80
2022/10/21 07:36:03;;;;;;;;;6.00;5.00;;;;;16.92;82.90;100500.94;5036791;28;68476;-81
2022/10/21 07:38:28;;;;;;;;;28.50;18.00;;;;;16.96;82.98;100502.47;5037492;28;47037;-80
2022/10/21 07:40:54;;;;;;;;;13.25;7.00;;;;;17.00;82.98;100496.09;5037586;28;45412;-80
2022/10/21 07:43:19;;;;;;;;;16.50;10.75;;;;;17.03;82.80;100496.75;5036703;28;66742;-80
2022/10/21 07:45:44;;;;;;;;;10.25;7.25;;;;;17.10;82.80;100504.28;5036842;28;64541;-80
2022/10/21 07:48:10;;;;;;;;;15.75;11.00;;;;;17.13;82.50;100502.31;5036007;28;75356;-80
2022/10/21 07:50:36;;;;;;;;;11.75;7.00;;;;;17.17;82.65;100510.84;5037417;28;45306;-80
2022/10/21 07:53:01;;;;;;;;;6.25;4.00;;;;;17.24;82.90;100513.97;5037406;28;45304;-80
2022/10/21 07:55:27;;;;;;;;;6.00;4.00;;;;;17.28;82.66;100520.75;5036130;28;45508;-80
2022/10/21 07:57:52;;;;;;;;;4.25;4.25;;;;;17.30;82.27;100521.50;5036173;28;45407;-80
2022/10/21 08:00:18;;;;;;;;;5.50;3.75;;;;;17.34;82.80;100526.44;5036279;28;72024;-81
2022/10/21 08:02:43;;;;;;;;;3.50;3.00;;;;;17.42;82.37;100521.59;5036351;28;62429;-81
2022/10/21 08:05:08;;;;;;;;;3.75;3.00;;;;;17.49;81.80;100527.31;5035708;28;52668;-81
2022/10/21 08:07:34;;;;;;;;;6.25;5.50;;;;;17.60;82.54;100524.84;5018301;28;77954;-81
2022/10/21 08:09:59;;;;;;;;;3.75;2.25;;;;;17.73;81.68;100535.47;5037256;28;45396;-80
2022/10/21 08:12:25;;;;;;;;;5.00;3.00;;;;;17.85;81.89;100548.84;5037157;28;45386;-80
2022/10/21 08:14:50;;;;;;;;;3.25;2.75;;;;;17.94;81.42;100545.63;5037117;28;45358;-80
2022/10/21 08:17:16;;;;;;;;;2.00;2.00;;;;;18.01;81.27;100546.13;5015321;28;47247;-81
2022/10/21 08:19:41;;;;;;;;;3.75;3.75;;;;;18.13;81.42;100543.53;5015951;28;67184;-81
2022/10/21 08:22:07;;;;;;;;;2.25;2.00;;;;;18.27;80.87;100545.28;5027268;28;45760;-80
2022/10/21 08:24:32;;;;;;;;;3.00;3.00;;;;;18.40;80.40;100541.88;5034714;28;67001;-81
2022/10/21 08:26:58;;;;;;;;;3.00;3.00;;;;;18.51;80.33;100547.28;5036294;28;46062;-81
2022/10/21 08:29:23;;;;;;;;;5.00;5.00;;;;;18.58;80.22;100545.94;5034559;28;45438;-82
2022/10/21 08:31:48;;;;;;;;;4.00;4.00;;;;;18.62;79.67;100542.16;5035343;28;45445;-82
2022/10/21 08:34:14;;;;;;;;;4.75;3.25;;;;;18.65;79.90;100544.59;5032353;28;55359;-82
2022/10/21 08:36:39;;;;;;;;;5.00;3.00;;;;;18.62;78.93;100539.53;5035827;28;49549;-80
2022/10/21 08:39:05;;;;;;;;;4.00;3.00;;;;;18.54;79.30;100544.47;5035535;28;45362;-80
2022/10/21 08:41:50;;;;;;;;;4.00;4.00;;;;;18.51;79.66;100539.38;5036621;28;45284;-80
2022/10/21 08:44:27;;;;;;;;;5.50;3.00;;;;;18.50;79.47;100537.72;5036056;28;45425;-80
2022/10/21 08:47:07;;;;;;;;;1.00;1.00;;;;;18.46;78.92;100539.69;5035501;28;46691;-80
2022/10/21 08:49:56;;;;;;;;;2.00;2.00;;;;;18.44;79.49;100538.94;5031300;28;45865;-80
2022/10/21 08:52:26;;;;;;;;;3.50;3.50;;;;;18.41;79.33;100543.56;5035166;28;45338;-80
2022/10/21 08:55:03;;;;;;;;;2.75;2.75;;;;;18.36;79.37;100542.06;5032796;28;45504;-79
2022/10/21 08:57:30;;;;;;;;;4.50;2.50;;;;;18.38;79.85;100547.25;5019577;28;46177;-80
2022/10/21 08:59:55;;;;;;;;;2.50;2.00;;;;;18.38;79.41;100550.72;5013583;28;71636;-80
2022/10/21 09:02:26;;;;;;;;;2.75;2.50;;;;;18.36;79.24;100533.31;5030609;28;65395;-80
2022/10/21 09:05:00;;;;;;;;;3.50;2.00;;;;;18.44;79.71;100552.09;5035384;28;45323;-80
2022/10/21 09:07:38;;;;;;;;;2.75;2.50;;;;;18.55;79.38;100554.91;5034286;28;46047;-80
2022/10/21 09:10:15;;;;;;;;;3.50;1.50;;;;;18.64;79.58;100549.97;5035465;28;45335;-80
2022/10/21 09:13:03;;;;;;;;;5.25;1.25;;;;;18.71;79.41;100538.06;5014149;28;45306;-80
2022/10/21 09:16:08;;;;;;;;;2.00;2.00;;;;;18.79;78.79;100541.03;5025576;28;45513;-80
2022/10/21 09:18:52;;;;;;;;;4.25;1.75;;;;;18.91;78.92;100548.16;5031836;28;47730;-80
2022/10/21 09:21:29;;;;;;;;;4.00;2.00;;;;;18.98;78.90;100543.34;5035651;28;45421;-80
2022/10/21 09:24:10;;;;;;;;;2.00;2.00;;;;;19.06;78.80;100546.28;5035318;28;45348;-80
2022/10/21 09:26:46;;;;;;;;;3.00;2.00;;;;;19.15;78.25;100542.19;5034387;28;45415;-80
2022/10/21 09:29:17;;;;;;;;;1.50;1.50;;;;;19.26;77.66;100539.66;5016782;28;47603;-79
2022/10/21 09:31:42;;;;;;;;;2.00;2.00;;;;;19.35;78.63;100527.63;5035078;28;45708;-80
2022/10/21 09:34:17;;;;;;;;;3.00;3.00;;;;;19.41;77.69;100534.25;5033921;28;47052;-79
2022/10/21 09:36:47;;;;;;;;;1.75;1.75;;;;;19.48;77.79;100543.44;5036738;28;45531;-79
2022/10/21 09:39:12;;;;;;;;;2.00;2.00;;;;;19.53;77.46;100536.06;5031017;28;47161;-79
2022/10/21 09:41:41;;;;;;;;;1.00;1.00;;;;;19.64;77.13;100535.31;5034075;28;45472;-80
2022/10/21 09:44:15;;;;;;;;;2.00;2.00;;;;;19.62;76.22;100542.50;5032741;28;45803;-80
2022/10/21 09:46:44;;;;;;;;;2.50;2.50;;;;;19.53;76.87;100536.06;5030558;28;45492;-79
2022/10/21 09:49:17;;;;;;;;;2.00;2.00;;;;;19.49;77.01;100532.78;5040561;28;46253;-81
2022/10/21 09:51:44;;;;;;;;;2.25;2.00;;;;;19.43;75.86;100535.03;5030352;28;45410;-77
2022/10/21 09:54:17;;;;;;;;;2.25;2.00;;;;;19.39;76.88;100539.69;5033808;28;45475;-79
2022/10/21 09:56:48;;;;;;;;;7.50;3.00;;;;;19.42;76.92;100554.44;5033773;28;45405;-78
2022/10/21 09:59:17;;;;;;;;;2.50;2.00;;;;;19.45;76.70;100548.97;5033780;28;45437;-79
2022/10/21 10:01:43;;;;;;;;;4.50;3.00;;;;;19.57;76.76;100560.47;5033709;28;45711;-78
2022/10/21 10:04:10;;;;;;;;;3.25;2.75;;;;;19.73;75.93;100559.31;5032359;28;45886;-78
2022/10/21 10:06:40;;;;;;;;;3.00;2.50;;;;;19.94;75.98;100557.91;5034285;28;45232;-75
2022/10/21 10:09:08;;;;;;;;;3.00;3.00;;;;;20.08;75.09;100561.25;5033613;28;47598;-78
2022/10/21 10:11:36;;;;;;;;;4.25;2.75;;;;;20.09;74.51;100552.34;5032430;28;45915;-77
2022/10/21 10:14:23;;;;;;;;;4.50;3.00;;;;;20.20;74.32;100550.75;5014168;28;45677;-77
2022/10/21 10:16:48;;;;;;;;;5.50;3.25;;;;;20.40;72.78;100552.78;5034273;28;45504;-77
2022/10/21 10:19:18;;;;;;;;;5.75;4.00;;;;;20.48;73.46;100554.84;5026784;28;68076;-76
2022/10/21 10:21:44;;;;;;;;;3.25;3.00;;;;;20.48;72.26;100554.84;5028339;28;45456;-77
2022/10/21 10:24:19;;;;;;;;;2.75;2.00;;;;;20.58;71.99;100561.19;5018522;28;45598;-73
2022/10/21 10:26:44;;;;;;;;;3.75;3.25;;;;;20.67;70.62;100562.31;5026120;28;45544;-74
2022/10/21 10:29:22;;;;;;;;;5.00;3.00;;;;;20.79;71.21;100558.75;5025050;28;45363;-75
2022/10/21 10:31:49;;;;;;;;;2.75;2.00;;;;;20.94;69.69;100564.69;5014952;28;45314;-76
2022/10/21 10:34:27;;;;;;;;;7.00;3.00;;;;;21.00;68.43;100560.75;5014522;28;45381;-75
2022/10/21 10:37:02;;;;;;;;;5.00;2.00;;;;;20.99;69.58;100553.78;5016218;28;45676;-75
2022/10/21 10:39:30;;;;;;;;;4.00;3.50;;;;;21.08;70.29;100548.63;5025442;28;46330;-75
2022/10/21 10:41:55;;;;;;;;;7.25;2.50;;;;;21.15;69.35;100549.00;5038062;28;45701;-77
2022/10/21 10:44:28;;;;;;;;;3.25;2.25;;;;;21.27;69.82;100545.41;5028522;28;53487;-75
2022/10/21 10:46:55;;;;;;;;;4.00;2.25;;;;;21.47;69.14;100551.00;5032330;28;45659;-76
2022/10/21 10:49:21;;;;;;;;;8.25;3.25;;;;;21.51;67.95;100548.94;5048976;28;46226;-75
2022/10/21 10:52:03;;;;;;;;;4.00;3.00;;;;;21.54;67.21;100552.19;5039705;28;47020;-75
2022/10/21 10:54:29;;;;;;;;;4.50;3.75;;;;;21.61;67.33;100544.63;5033251;28;45647;-73
2022/10/21 10:56:59;;;;;;;;;3.00;2.00;;;;;21.75;66.83;100540.88;5036599;28;45655;-74
2022/10/21 10:59:40;;;;;;;;;3.50;3.00;;;;;21.96;66.84;100533.03;5030816;28;47130;-75
2022/10/21 11:02:08;;;;;;;;;2.75;2.25;;;;;22.20;64.48;100541.66;5025999;28;45271;-74
2022/10/21 11:04:56;;;;;;;;;5.25;2.50;;;;;22.68;60.66;100550.19;5036593;28;45515;-76
2022/10/21 11:07:44;;;;;;;;;5.25;3.25;;;;;24.41;60.51;100536.22;5038157;28;46795;-75
2022/10/21 11:10:23;;;;;;;;;2.00;2.00;;;;;25.81;54.27;100537.34;5047153;28;47391;-76
2022/10/21 11:12:48;;;;;;;;;1.50;1.50;;;;;26.32;54.90;100535.13;5033063;28;45686;-75
2022/10/21 11:15:14;;;;;;;;;8.00;3.25;;;;;26.69;54.06;100542.16;5025733;28;60864;-75
2022/10/21 11:17:48;;;;;;;;;6.00;4.50;;;;;27.02;53.34;100537.91;5040066;28;45541;-76
2022/10/21 11:20:56;;;;;;;;;4.00;2.00;;;;;27.42;52.32;100527.66;5041112;28;47790;-76
2022/10/21 11:23:41;;;;;;;;;2.00;2.00;;;;;27.89;48.61;100539.72;5020341;28;45541;-75
2022/10/21 11:26:25;;;;;;;;;2.75;1.00;;;;;28.59;46.41;100543.94;5027079;28;45326;-74
2022/10/21 11:29:00;;;;;;;;;1.50;1.50;;;;;29.20;45.39;100542.56;5020967;28;45627;-75
2022/10/21 11:31:42;;;;;;;;;1.75;1.00;;;;;29.69;42.63;100541.56;5026039;28;46101;-75
2022/10/21 11:34:24;;;;;;;;;4.25;2.00;;;;;29.65;40.26;100541.06;5035583;28;45504;-75
2022/10/21 11:36:59;;;;;;;;;4.00;2.00;;;;;29.64;42.41;100560.00;5029016;28;45437;-75
2022/10/21 11:39:39;;;;;;;;;3.00;1.75;;;;;29.95;42.23;100554.72;5035976;28;45614;-75
2022/10/21 11:42:22;;;;;;;;;3.00;2.00;;;;;30.28;38.19;100555.34;5030710;28;46159;-75
2022/10/21 11:45:19;;;;;;;;;3.75;1.00;;;;;30.32;39.78;100561.22;5029397;28;45487;-76
2022/10/21 11:48:12;;;;;;;;;1.00;0.75;;;;;30.60;39.71;100558.03;5034305;28;45383;-76
2022/10/21 11:50:56;;;;;;;;;2.25;0.25;;;;;30.81;38.38;100551.97;5028606;28;45577;-75
2022/10/21 11:53:27;;;;;;;;;0.00;0.00;;;;;30.68;37.00;100556.13;5037940;28;46798;-76
2022/10/21 11:56:38;;;;;;;;;2.50;1.00;;;;;30.63;35.79;100558.50;5045755;28;45460;-76
2022/10/21 11:59:07;;;;;;;;;1.00;0.25;;;;;30.26;35.29;100559.25;5040796;28;45557;-77
2022/10/21 12:01:49;;;;;;;;;2.00;0.25;;;;;29.72;34.67;100547.41;5031757;28;45367;-77
2022/10/21 12:04:33;;;;;;;;;0.75;0.50;;;;;29.24;35.75;100557.28;5036636;28;47039;-77
2022/10/21 12:07:20;;;;;;;;;0.25;0.00;;;;;29.28;36.30;100539.03;5048759;28;45478;-76
2022/10/21 12:09:56;;;;;;;;;0.00;0.00;;;;;29.43;36.58;100549.88;5036691;28;45377;-76
2022/10/21 12:12:33;;;;;;;;;3.75;0.00;;;;;29.64;34.78;100550.13;5031492;28;45614;-76
2022/10/21 12:15:03;;;;;;;;;1.00;0.25;;;;;30.06;37.08;100535.53;5050351;28;46705;-77
2022/10/21 12:17:32;;;;;;;;;2.00;0.50;;;;;31.07;33.83;100538.13;5035064;28;45619;-76
2022/10/21 12:20:03;;;;;;;;;2.00;0.75;;;;;32.24;33.50;100547.34;5035821;28;45425;-76
2022/10/21 12:22:31;;;;;;;;;0.75;0.00;;;;;33.32;33.73;100534.56;5056466;28;45318;-77
2022/10/21 12:25:16;;;;;;;;;0.75;0.50;;;;;33.92;32.37;100524.09;5055384;28;46990;-77
2022/10/21 12:28:05;;;;;;;;;2.25;0.00;;;;;34.18;28.98;100528.75;5044320;28;45676;-77
2022/10/21 12:30:40;;;;;;;;;0.00;0.00;;;;;33.26;28.34;100525.41;5022864;28;45366;-76
2022/10/21 12:33:15;;;;;;;;;1.00;0.00;;;;;32.10;29.91;100525.66;5040848;28;45406;-76
2022/10/21 12:35:52;;;;;;;;;0.00;0.00;;;;;31.18;31.32;100521.56;5033490;28;45334;-76
2022/10/21 12:38:19;;;;;;;;;0.25;0.25;;;;;30.38;31.29;100517.56;5035859;28;45540;-75
2022/10/21 12:40:44;;;;;;;;;0.00;0.00;;;;;29.73;32.95;100521.41;5033915;28;45528;-77
2022/10/21 12:43:26;;;;;;;;;0.00;0.00;;;;;29.23;33.49;100523.44;5034473;28;45524;-77
2022/10/21 12:46:08;;;;;;;;;3.75;0.25;;;;;28.84;34.99;100520.63;5042006;28;46412;-74